createdAt,value
2019-04-20T00:00:54.451Z,94809.81
2019-04-20T00:03:26.009Z,94799.92
2019-04-20T00:06:01.687Z,94811.05
2019-04-20T00:08:33.203Z,94803.66
2019-04-20T00:11:07.268Z,94802.51
2019-04-20T00:13:40.670Z,94807.30
2019-04-20T00:16:00.001Z,94798.16
2019-04-20T00:18:34.503Z,94800.65
2019-04-20T00:21:05.653Z,94800.94
2019-04-20T00:23:39.917Z,94798.88
2019-04-20T00:26:14.834Z,94799.23
2019-04-20T00:28:58.670Z,94794.30
2019-04-20T00:31:23.446Z,94790.55
2019-04-20T00:33:49.679Z,94788.91
2019-04-20T00:36:07.413Z,94789.89
2019-04-20T00:38:45.314Z,94787.02
2019-04-20T00:41:10.391Z,94786.14
2019-04-20T00:43:39.118Z,94787.09
2019-04-20T00:46:18.372Z,94790.13
2019-04-20T00:48:47.507Z,94793.42
2019-04-20T00:51:26.286Z,94786.59
2019-04-20T00:53:41.514Z,94792.58
2019-04-20T00:56:07.551Z,94791.52
2019-04-20T00:58:50.786Z,94791.52
2019-04-20T01:01:27.761Z,94784.45
2019-04-20T01:03:49.670Z,94786.76
2019-04-20T01:06:38.419Z,94794.04
2019-04-20T01:08:51.384Z,94793.88
2019-04-20T01:11:27.510Z,94800.14
2019-04-20T01:13:55.376Z,94796.20
2019-04-20T01:16:29.554Z,94805.41
2019-04-20T01:18:49.273Z,94806.84
2019-04-20T01:21:21.541Z,94806.27
2019-04-20T01:23:53.289Z,94807.98
2019-04-20T01:26:19.716Z,94809.43
2019-04-20T01:29:01.785Z,94807.27
2019-04-20T01:31:28.446Z,94815.33
2019-04-20T01:33:58.908Z,94810.23
2019-04-20T01:36:37.153Z,94813.48
2019-04-20T01:39:01.443Z,94812.03
2019-04-20T01:41:18.140Z,94813.46
2019-04-20T01:43:46.412Z,94808.94
2019-04-20T01:46:19.957Z,94805.18
2019-04-20T01:48:46.250Z,94807.41
2019-04-20T01:51:21.198Z,94805.03
2019-04-20T01:54:06.322Z,94808.91
2019-04-20T01:56:32.909Z,94807.12
2019-04-20T01:59:06.067Z,94810.20
2019-04-20T02:01:37.457Z,94806.97
2019-04-20T02:04:15.805Z,94806.20
2019-04-20T02:06:46.195Z,94804.55
2019-04-20T02:09:15.023Z,94809.64
2019-04-20T02:11:43.056Z,94804.95
2019-04-20T02:14:11.991Z,94803.95
2019-04-20T02:16:45.872Z,94798.05
2019-04-20T02:19:26.670Z,94803.06
2019-04-20T02:21:55.425Z,94801.77
2019-04-20T02:24:12.510Z,94800.68
2019-04-20T02:26:40.974Z,94807.88
2019-04-20T02:29:37.478Z,94797.85
2019-04-20T02:32:23.681Z,94797.28
2019-04-20T02:37:45.144Z,94798.05
2019-04-20T02:39:46.294Z,94798.98
2019-04-20T02:42:22.656Z,94797.40
2019-04-20T02:44:53.035Z,94796.23
2019-04-20T02:49:50.950Z,94794.20
2019-04-20T02:54:46.405Z,94796.53
2019-04-20T03:02:01.485Z,94799.77
2019-04-20T03:04:25.813Z,94799.27
2019-04-20T03:07:02.302Z,94795.31
2019-04-20T03:09:36.474Z,94793.73
2019-04-20T03:12:09.640Z,94798.67
2019-04-20T03:14:26.559Z,94798.30
2019-04-20T03:17:03.310Z,94794.30
2019-04-20T03:19:28.635Z,94796.08
2019-04-20T03:22:09.453Z,94794.86
2019-04-20T03:24:39.073Z,94798.56
2019-04-20T03:27:00.761Z,94799.97
2019-04-20T03:29:45.721Z,94798.19
2019-04-20T03:32:44.265Z,94798.11
2019-04-20T03:37:21.299Z,94801.04
2019-04-20T03:39:40.565Z,94802.65
2019-04-20T03:41:56.980Z,94798.59
2019-04-20T03:44:27.858Z,94804.57
2019-04-20T03:46:59.743Z,94799.80
2019-04-20T03:49:48.358Z,94798.51
2019-04-20T03:52:26.170Z,94802.62
2019-04-20T03:55:17.459Z,94801.09
2019-04-20T03:57:58.717Z,94800.58
2019-04-20T04:00:31.115Z,94800.58
2019-04-20T04:03:20.220Z,94805.14
2019-04-20T04:05:36.900Z,94801.98
2019-04-20T04:08:04.303Z,94802.61
2019-04-20T04:10:33.673Z,94806.16
2019-04-20T04:13:12.712Z,94806.11
2019-04-20T04:15:48.767Z,94810.18
2019-04-20T04:18:21.272Z,94803.58
2019-04-20T04:20:49.770Z,94808.84
2019-04-20T04:23:32.667Z,94805.56
2019-04-20T04:26:00.678Z,94803.38
2019-04-20T04:28:30.003Z,94804.88
2019-04-20T04:31:04.087Z,94812.48
2019-04-20T04:33:51.990Z,94809.28
2019-04-20T04:35:59.178Z,94804.34
2019-04-20T04:38:37.771Z,94807.22
2019-04-20T04:41:08.480Z,94809.66
2019-04-20T04:43:36.019Z,94813.86
2019-04-20T04:45:44.707Z,94815.44
2019-04-20T04:48:18.987Z,94816.30
2019-04-20T04:50:50.871Z,94814.61
2019-04-20T04:53:28.552Z,94820.07
2019-04-20T04:55:50.823Z,94825.73
2019-04-20T04:58:12.837Z,94829.88
2019-04-20T05:00:42.481Z,94829.24
2019-04-20T05:03:28.466Z,94834.50
2019-04-20T05:06:06.465Z,94838.21
2019-04-20T05:08:27.420Z,94824.37
2019-04-20T05:10:49.973Z,94833.10
2019-04-20T05:13:18.292Z,94831.61
2019-04-20T05:16:00.440Z,94839.02
2019-04-20T05:18:41.509Z,94836.55
2019-04-20T05:21:13.101Z,94835.42
2019-04-20T05:23:31.709Z,94823.83
2019-04-20T05:26:22.684Z,94830.03
2019-04-20T05:28:41.625Z,94823.89
2019-04-20T05:31:02.993Z,94831.95
2019-04-20T05:33:48.839Z,94829.68
2019-04-20T05:36:20.504Z,94833.08
2019-04-20T05:39:19.566Z,94832.38
2019-04-20T05:41:17.004Z,94832.45
2019-04-20T05:44:00.747Z,94831.62
2019-04-20T05:46:37.085Z,94831.83
2019-04-20T05:49:13.409Z,94829.08
2019-04-20T05:51:47.746Z,94834.67
2019-04-20T05:54:09.798Z,94836.60
2019-04-20T05:56:44.502Z,94836.43
2019-04-20T05:59:09.103Z,94833.90
2019-04-20T06:01:40.810Z,94830.31
2019-04-20T06:04:04.250Z,94834.60
2019-04-20T06:06:40.419Z,94830.05
2019-04-20T06:09:11.631Z,94831.94
2019-04-20T06:11:53.184Z,94834.88
2019-04-20T06:14:08.049Z,94835.19
2019-04-20T06:16:59.412Z,94830.27
2019-04-20T06:22:03.522Z,94836.56
2019-04-20T06:24:39.845Z,94834.59
2019-04-20T06:27:14.581Z,94835.53
2019-04-20T06:29:31.259Z,94834.71
2019-04-20T06:32:06.929Z,94839.08
2019-04-20T06:37:03.658Z,94839.63
2019-04-20T06:42:10.860Z,94832.88
2019-04-20T06:49:33.242Z,94824.29
2019-04-20T06:52:24.356Z,94824.61
2019-04-20T06:54:53.712Z,94819.43
2019-04-20T06:57:29.137Z,94824.00
2019-04-20T06:59:57.831Z,94821.18
2019-04-20T07:02:33.743Z,94821.09
2019-04-20T07:05:10.024Z,94824.66
2019-04-20T07:07:26.621Z,94825.30
2019-04-20T07:12:22.820Z,94822.70
2019-04-20T07:14:48.269Z,94820.44
2019-04-20T07:17:40.772Z,94818.14
2019-04-20T07:20:02.784Z,94820.58
2019-04-20T07:22:33.735Z,94824.13
2019-04-20T07:25:01.375Z,94821.62
2019-04-20T07:27:35.398Z,94820.66
2019-04-20T07:30:03.859Z,94823.06
2019-04-20T07:32:32.604Z,94825.77
2019-04-20T07:35:02.372Z,94825.30
2019-04-20T07:40:07.378Z,94817.08
2019-04-20T07:42:41.197Z,94816.82
2019-04-20T07:45:13.106Z,94819.73
2019-04-20T07:47:42.896Z,94820.27
2019-04-20T07:50:03.715Z,94815.55
2019-04-20T07:52:14.546Z,94816.89
2019-04-20T07:55:26.353Z,94806.92
2019-04-20T07:57:30.658Z,94810.31
2019-04-20T07:59:59.142Z,94804.52
2019-04-20T08:02:58.720Z,94804.52
2019-04-20T08:05:18.215Z,94808.17
2019-04-20T08:07:43.115Z,94807.09
2019-04-20T08:10:09.135Z,94803.63
2019-04-20T08:15:36.472Z,94802.78
2019-04-20T08:17:54.831Z,94798.77
2019-04-20T08:20:21.784Z,94801.34
2019-04-20T08:22:55.240Z,94802.35
2019-04-20T08:25:16.774Z,94796.45
2019-04-20T08:27:52.945Z,94792.56
2019-04-20T08:30:57.176Z,94793.56
2019-04-20T08:33:32.565Z,94794.48
2019-04-20T08:36:09.172Z,94793.11
2019-04-20T08:41:00.146Z,94788.03
2019-04-20T08:43:42.554Z,94786.64
2019-04-20T08:46:00.353Z,94786.86
2019-04-20T08:48:32.849Z,94785.31
2019-04-20T08:51:01.877Z,94782.97
2019-04-20T08:53:30.882Z,94780.52
2019-04-20T08:55:54.265Z,94781.73
2019-04-20T08:58:11.381Z,94781.92
2019-04-20T09:00:48.537Z,94781.98
2019-04-20T09:03:19.407Z,94778.06
2019-04-20T09:05:49.066Z,94775.78
2019-04-20T09:08:17.842Z,94784.72
2019-04-20T09:11:00.001Z,94774.81
2019-04-20T09:13:21.432Z,94764.11
2019-04-20T09:15:40.452Z,94763.25
2019-04-20T09:18:29.048Z,94762.05
2019-04-20T09:21:01.124Z,94762.70
2019-04-20T09:23:36.368Z,94754.35
2019-04-20T09:26:16.092Z,94754.55
2019-04-20T09:28:38.463Z,94753.72
2019-04-20T09:31:16.644Z,94750.98
2019-04-20T09:33:51.440Z,94750.84
2019-04-20T09:36:21.078Z,94745.52
2019-04-20T09:39:08.597Z,94740.45
2019-04-20T09:41:54.865Z,94743.77
2019-04-20T09:44:04.685Z,94741.97
2019-04-20T09:46:43.195Z,94738.61
2019-04-20T09:49:15.737Z,94740.13
2019-04-20T09:51:50.048Z,94734.11
2019-04-20T09:54:24.416Z,94735.39
2019-04-20T09:56:56.682Z,94733.83
2019-04-20T09:59:22.046Z,94733.83
2019-04-20T10:01:41.939Z,94732.35
2019-04-20T10:04:03.443Z,94731.58
2019-04-20T10:06:34.550Z,94722.03
2019-04-20T10:09:04.801Z,94724.97
2019-04-20T10:11:31.927Z,94726.47
2019-04-20T10:14:00.172Z,94719.59
2019-04-20T10:16:29.431Z,94719.30
2019-04-20T10:18:58.756Z,94715.51
2019-04-20T10:21:27.736Z,94716.17
2019-04-20T10:23:56.601Z,94716.50
2019-04-20T10:26:24.826Z,94714.56
2019-04-20T10:28:53.327Z,94715.73
2019-04-20T10:31:22.371Z,94704.98
2019-04-20T10:33:51.416Z,94704.52
2019-04-20T10:36:37.591Z,94697.38
2019-04-20T10:39:08.745Z,94705.67
2019-04-20T10:41:45.168Z,94704.09
2019-04-20T10:44:07.233Z,94695.81
2019-04-20T10:46:36.237Z,94693.72
2019-04-20T10:49:05.970Z,94692.73
2019-04-20T10:51:35.377Z,94695.98
2019-04-20T10:54:04.594Z,94693.47
2019-04-20T10:56:33.727Z,94695.41
2019-04-20T10:59:01.963Z,94696.27
2019-04-20T11:01:31.628Z,94689.33
2019-04-20T11:04:00.730Z,94691.42
2019-04-20T11:06:29.010Z,94690.31
2019-04-20T11:08:58.486Z,94691.98
2019-04-20T11:11:29.977Z,94682.16
2019-04-20T11:14:01.920Z,94686.55
2019-04-20T11:16:28.514Z,94686.42
2019-04-20T11:18:57.755Z,94693.17
2019-04-20T11:21:26.337Z,94686.86
2019-04-20T11:23:54.505Z,94682.37
2019-04-20T11:26:22.694Z,94682.19
2019-04-20T11:28:52.269Z,94675.97
2019-04-20T11:31:21.892Z,94684.22
2019-04-20T11:33:50.618Z,94684.71
2019-04-20T11:36:19.160Z,94678.30
2019-04-20T11:38:48.969Z,94680.27
2019-04-20T11:41:23.724Z,94674.66
2019-04-20T11:43:47.821Z,94672.53
2019-04-20T11:46:16.568Z,94671.80
2019-04-20T11:48:45.435Z,94670.83
2019-04-20T11:51:13.886Z,94672.93
2019-04-20T11:53:42.651Z,94674.84
2019-04-20T11:56:14.631Z,94668.09
2019-04-20T11:58:40.841Z,94667.97
2019-04-20T12:01:23.395Z,94666.51
2019-04-20T12:03:58.398Z,94661.45
2019-04-20T12:06:19.314Z,94657.75
2019-04-20T12:08:48.909Z,94659.27
2019-04-20T12:11:26.469Z,94657.80
2019-04-20T12:13:47.248Z,94652.98
2019-04-20T12:16:15.436Z,94654.48
2019-04-20T12:18:44.354Z,94651.57
2019-04-20T12:21:12.959Z,94646.70
2019-04-20T12:23:42.340Z,94649.27
2019-04-20T12:26:10.951Z,94645.61
2019-04-20T12:28:40.050Z,94645.61
2019-04-20T12:31:11.888Z,94645.86
2019-04-20T12:33:38.544Z,94637.00
2019-04-20T12:36:08.285Z,94636.69
2019-04-20T12:38:37.038Z,94638.82
2019-04-20T12:41:07.476Z,94634.84
2019-04-20T12:43:36.020Z,94631.79
2019-04-20T12:46:05.427Z,94626.42
2019-04-20T12:48:33.725Z,94626.33
2019-04-20T12:51:03.635Z,94631.89
2019-04-20T12:53:32.763Z,94629.58
2019-04-20T12:56:02.198Z,94615.36
2019-04-20T12:58:30.666Z,94627.81
2019-04-20T13:00:58.857Z,94629.59
2019-04-20T13:03:27.670Z,94627.45
2019-04-20T13:05:56.177Z,94623.19
2019-04-20T13:08:30.415Z,94626.50
2019-04-20T13:10:55.904Z,94620.97
2019-04-20T13:13:41.034Z,94617.91
2019-04-20T13:16:12.214Z,94616.48
2019-04-20T13:18:47.959Z,94609.59
2019-04-20T13:21:16.738Z,94617.38
2019-04-20T13:23:45.355Z,94613.34
2019-04-20T13:26:14.440Z,94608.30
2019-04-20T13:28:43.456Z,94606.69
2019-04-20T13:31:11.778Z,94612.06
2019-04-20T13:33:41.230Z,94607.52
2019-04-20T13:36:10.299Z,94600.84
2019-04-20T13:38:38.509Z,94605.03
2019-04-20T13:41:06.688Z,94598.48
2019-04-20T13:43:35.521Z,94595.55
2019-04-20T13:46:04.912Z,94586.28
2019-04-20T13:48:33.449Z,94590.18
2019-04-20T13:51:02.341Z,94585.92
2019-04-20T13:53:30.776Z,94588.33
2019-04-20T13:55:59.324Z,94585.37
2019-04-20T13:58:45.445Z,94585.73
2019-04-20T14:01:30.787Z,94586.06
2019-04-20T14:04:06.205Z,94579.38
2019-04-20T14:06:35.262Z,94572.56
2019-04-20T14:09:05.554Z,94571.61
2019-04-20T14:11:33.862Z,94573.80
2019-04-20T14:14:05.266Z,94573.12
2019-04-20T14:16:31.935Z,94564.23
2019-04-20T14:19:00.861Z,94560.68
2019-04-20T14:21:30.208Z,94558.64
2019-04-20T14:23:59.133Z,94548.84
2019-04-20T14:26:27.675Z,94546.48
2019-04-20T14:28:56.775Z,94555.48
2019-04-20T14:31:25.901Z,94539.11
2019-04-20T14:33:55.012Z,94535.97
2019-04-20T14:36:24.338Z,94534.94
2019-04-20T14:38:54.191Z,94535.20
2019-04-20T14:41:22.453Z,94530.98
2019-04-20T14:43:51.286Z,94528.87
2019-04-20T14:46:20.911Z,94530.31
2019-04-20T14:48:49.448Z,94530.09
2019-04-20T14:51:17.924Z,94528.37
2019-04-20T14:53:47.196Z,94524.03
2019-04-20T14:56:15.698Z,94523.09
2019-04-20T14:59:03.331Z,94524.16
2019-04-20T15:01:36.619Z,94522.70
2019-04-20T15:04:12.851Z,94513.52
2019-04-20T15:06:38.027Z,94519.17
2019-04-20T15:09:06.735Z,94516.59
2019-04-20T15:11:38.158Z,94510.88
2019-04-20T15:14:05.287Z,94508.12
2019-04-20T15:16:34.864Z,94508.91
2019-04-20T15:19:05.388Z,94512.70
2019-04-20T15:21:35.639Z,94511.20
2019-04-20T15:24:03.919Z,94506.98
2019-04-20T15:26:32.406Z,94503.77
2019-04-20T15:33:00.988Z,94504.58
2019-04-20T15:35:30.202Z,94499.63
2019-04-20T15:37:59.487Z,94495.47
2019-04-20T15:40:28.929Z,94495.52
2019-04-20T15:43:05.905Z,94493.88
2019-04-20T15:45:27.733Z,94486.25
2019-04-20T15:47:56.326Z,94490.94
2019-04-20T15:50:25.659Z,94489.52
2019-04-20T15:52:56.589Z,94491.48
2019-04-20T15:55:30.347Z,94495.30
2019-04-20T15:57:55.433Z,94491.11
2019-04-20T16:00:24.604Z,94494.00
2019-04-20T16:02:54.457Z,94492.25
2019-04-20T16:05:28.230Z,94493.48
2019-04-20T16:08:00.586Z,94489.58
2019-04-20T16:10:28.482Z,94494.12
2019-04-20T16:13:11.940Z,94489.04
2019-04-20T16:15:27.599Z,94488.80
2019-04-20T16:17:56.798Z,94491.88
2019-04-20T16:20:26.814Z,94488.09
2019-04-20T16:22:56.388Z,94488.61
2019-04-20T16:25:35.378Z,94487.27
2019-04-20T16:28:03.740Z,94490.75
2019-04-20T16:30:33.713Z,94493.20
2019-04-20T16:33:02.783Z,94485.84
2019-04-20T16:35:32.207Z,94479.62
2019-04-20T16:38:00.475Z,94482.94
2019-04-20T16:40:29.471Z,94486.38
2019-04-20T16:42:58.499Z,94477.81
2019-04-20T16:45:27.545Z,94474.48
2019-04-20T16:47:58.802Z,94476.13
2019-04-20T16:50:26.911Z,94478.05
2019-04-20T16:52:55.198Z,94478.14
2019-04-20T16:55:23.373Z,94476.20
2019-04-20T16:57:52.980Z,94473.42
2019-04-20T17:00:21.251Z,94461.68
2019-04-20T17:02:50.096Z,94471.33
2019-04-20T17:05:18.934Z,94471.41
2019-04-20T17:07:53.099Z,94461.59
2019-04-20T17:10:22.397Z,94459.66
2019-04-20T17:12:51.595Z,94468.94
2019-04-20T17:15:21.505Z,94469.67
2019-04-20T17:17:51.602Z,94465.97
2019-04-20T17:20:19.860Z,94470.64
2019-04-20T17:22:48.697Z,94471.92
2019-04-20T17:25:16.981Z,94476.54
2019-04-20T17:27:59.458Z,94475.16
2019-04-20T17:30:35.802Z,94475.83
2019-04-20T17:33:06.279Z,94472.66
2019-04-20T17:35:43.482Z,94473.37
2019-04-20T17:38:04.876Z,94476.58
2019-04-20T17:40:51.209Z,94466.55
2019-04-20T17:43:12.731Z,94473.48
2019-04-20T17:45:43.246Z,94471.55
2019-04-20T17:48:17.630Z,94473.42
2019-04-20T17:50:56.165Z,94470.47
2019-04-20T17:53:22.932Z,94475.03
2019-04-20T17:55:53.468Z,94481.89
2019-04-20T17:58:27.880Z,94487.70
2019-04-20T18:01:23.000Z,94488.56
2019-04-20T18:04:23.243Z,94478.91
2019-04-20T18:06:39.490Z,94491.71
2019-04-20T18:09:07.107Z,94488.92
2019-04-20T18:11:25.663Z,94482.33
2019-04-20T18:14:05.580Z,94492.34
2019-04-20T18:16:46.820Z,94493.77
2019-04-20T18:19:07.391Z,94493.80
2019-04-20T18:21:32.943Z,94494.72
2019-04-20T18:24:05.242Z,94502.26
2019-04-20T18:26:56.112Z,94503.34
2019-04-20T18:29:20.203Z,94502.09
2019-04-20T18:32:23.224Z,94503.61
2019-04-20T18:35:04.550Z,94507.94
2019-04-20T18:37:32.689Z,94511.67
2019-04-20T18:40:06.193Z,94515.75
2019-04-20T18:42:37.168Z,94523.98
2019-04-20T18:45:17.227Z,94518.63
2019-04-20T18:47:50.602Z,94518.77
2019-04-20T18:50:10.508Z,94525.54
2019-04-20T18:52:31.669Z,94523.86
2019-04-20T18:55:01.535Z,94520.45
2019-04-20T18:57:32.700Z,94529.66
2019-04-20T19:00:00.921Z,94532.09
2019-04-20T19:02:34.788Z,94533.98
2019-04-20T19:05:02.127Z,94538.70
2019-04-20T19:07:34.857Z,94541.67
2019-04-20T19:10:09.346Z,94543.34
2019-04-20T19:12:41.413Z,94546.23
2019-04-20T19:15:27.947Z,94542.95
2019-04-20T19:18:04.285Z,94541.17
2019-04-20T19:20:34.977Z,94540.72
2019-04-20T19:23:04.164Z,94548.16
2019-04-20T19:25:36.731Z,94544.50
2019-04-20T19:28:04.702Z,94558.95
2019-04-20T19:30:41.240Z,94546.91
2019-04-20T19:33:20.563Z,94548.47
2019-04-20T19:35:41.853Z,94548.45
2019-04-20T19:38:10.519Z,94547.20
2019-04-20T19:40:45.631Z,94556.43
2019-04-20T19:43:15.565Z,94554.42
2019-04-20T19:46:00.086Z,94559.73
2019-04-20T19:48:17.666Z,94555.59
2019-04-20T19:50:57.720Z,94553.77
2019-04-20T19:53:26.423Z,94557.16
2019-04-20T19:55:49.086Z,94547.74
2019-04-20T19:58:18.790Z,94555.91
2019-04-20T20:00:53.472Z,94546.00
2019-04-20T20:03:19.749Z,94557.56
2019-04-20T20:05:51.820Z,94558.87
2019-04-20T20:08:23.487Z,94557.27
2019-04-20T20:10:48.522Z,94555.19
2019-04-20T20:13:18.125Z,94518.06
2019-04-20T20:15:47.001Z,94553.69
2019-04-20T20:18:33.122Z,94552.13
2019-04-20T20:20:59.614Z,94549.48
2019-04-20T20:23:16.258Z,94549.50
2019-04-20T20:25:47.551Z,94548.42
2019-04-20T20:28:29.898Z,94552.09
2019-04-20T20:30:56.844Z,94551.80
2019-04-20T20:33:37.364Z,94548.12
2019-04-20T20:35:53.623Z,94549.67
2019-04-20T20:38:22.830Z,94545.48
2019-04-20T20:40:54.848Z,94546.81
2019-04-20T20:43:23.083Z,94542.11
2019-04-20T20:46:01.376Z,94539.48
2019-04-20T20:48:31.360Z,94531.61
2019-04-20T20:51:06.447Z,94526.34
2019-04-20T20:53:21.930Z,94538.09
2019-04-20T20:55:48.750Z,94533.08
2019-04-20T20:58:19.172Z,94532.25
2019-04-20T21:00:55.845Z,94524.66
2019-04-20T21:03:22.461Z,94529.33
2019-04-20T21:05:45.382Z,94531.17
2019-04-20T21:08:13.857Z,94530.55
2019-04-20T21:10:44.297Z,94529.19
2019-04-20T21:13:13.861Z,94529.45
2019-04-20T21:15:45.342Z,94532.03
2019-04-20T21:18:33.301Z,94533.03
2019-04-20T21:21:00.046Z,94531.39
2019-04-20T21:23:28.405Z,94527.47
2019-04-20T21:26:01.279Z,94526.39
2019-04-20T21:28:29.776Z,94529.81
2019-04-20T21:31:08.077Z,94526.46
2019-04-20T21:33:34.243Z,94536.13
2019-04-20T21:36:00.885Z,94539.02
2019-04-20T21:38:35.537Z,94535.08
2019-04-20T21:41:05.079Z,94530.08
2019-04-20T21:43:34.766Z,94527.95
2019-04-20T21:46:04.604Z,94520.92
2019-04-20T21:48:45.302Z,94522.23
2019-04-20T21:51:15.286Z,94520.17
2019-04-20T21:53:33.410Z,94519.23
2019-04-20T21:56:00.060Z,94516.24
2019-04-20T21:58:35.447Z,94516.50
2019-04-20T22:01:09.242Z,94516.72
2019-04-20T22:03:28.107Z,94500.42
2019-04-20T22:06:02.363Z,94515.30
2019-04-20T22:08:32.575Z,94516.03
2019-04-20T22:11:01.837Z,94510.20
2019-04-20T22:13:36.148Z,94511.34
2019-04-20T22:16:05.183Z,94506.30
2019-04-20T22:18:31.810Z,94513.97
2019-04-20T22:21:12.303Z,94510.25
2019-04-20T22:23:47.524Z,94509.85
2019-04-20T22:26:11.983Z,94508.76
2019-04-20T22:28:31.997Z,94517.55
2019-04-20T22:31:00.279Z,94514.39
2019-04-20T22:33:35.030Z,94518.83
2019-04-20T22:36:04.191Z,94512.81
2019-04-20T22:38:55.861Z,94515.59
2019-04-20T22:41:20.154Z,94517.58
2019-04-20T22:43:50.366Z,94522.48
2019-04-20T22:46:24.783Z,94512.50
2019-04-20T22:48:59.547Z,94515.24
2019-04-20T22:51:34.291Z,94510.17
2019-04-20T22:54:03.801Z,94506.32
2019-04-20T22:56:35.326Z,94503.88
2019-04-20T22:58:57.547Z,94500.36
2019-04-20T23:01:29.852Z,94503.42
2019-04-20T23:03:48.671Z,94503.77
2019-04-20T23:06:17.471Z,94500.66
2019-04-20T23:08:55.671Z,94498.78
2019-04-20T23:11:23.611Z,94497.31
2019-04-20T23:13:49.697Z,94497.23
2019-04-20T23:16:17.635Z,94497.53
2019-04-20T23:18:46.402Z,94501.58
2019-04-20T23:21:17.383Z,94490.59
2019-04-20T23:23:45.731Z,94486.12
2019-04-20T23:26:19.346Z,94489.67
2019-04-20T23:28:48.282Z,94485.67
2019-04-20T23:31:19.679Z,94486.61
2019-04-20T23:33:44.002Z,94481.88
2019-04-20T23:36:12.193Z,94479.36
2019-04-20T23:38:44.227Z,94474.96
2019-04-20T23:41:10.302Z,94469.72
2019-04-20T23:43:49.299Z,94471.25
2019-04-20T23:46:31.126Z,94471.44
2019-04-20T23:49:22.310Z,94464.75
2019-04-20T23:52:05.450Z,94472.98
2019-04-20T23:54:22.090Z,94469.46
2019-04-20T23:56:46.224Z,94460.36
2019-04-20T23:59:14.815Z,94458.66
